sensor_id;sensor_type;location;lat;lon;timestamp;pressure;altitude;pressure_sealevel;temperature;humidity
16664;BME280;8445;51.270;9.434;2023-01-29T00:01:55;100777.16;;;-2.43;67.57
16664;BME280;8445;51.270;9.434;2023-01-29T00:04:24;100780.56;;;-2.35;67.47
16664;BME280;8445;51.270;9.434;2023-01-29T00:06:51;100775.41;;;-2.30;67.41
16664;BME280;8445;51.270;9.434;2023-01-29T00:09:18;100771.06;;;-2.27;67.50
16664;BME280;8445;51.270;9.434;2023-01-29T00:11:44;100768.47;;;-2.20;67.13
16664;BME280;8445;51.270;9.434;2023-01-29T00:14:14;100766.75;;;-2.15;67.50
16664;BME280;8445;51.270;9.434;2023-01-29T00:16:40;100758.97;;;-2.09;67.26
16664;BME280;8445;51.270;9.434;2023-01-29T00:19:06;100745.09;;;-2.03;67.17
16664;BME280;8445;51.270;9.434;2023-01-29T00:21:32;100752.88;;;-1.96;67.51
16664;BME280;8445;51.270;9.434;2023-01-29T00:23:59;100743.38;;;-1.94;67.72
16664;BME280;8445;51.270;9.434;2023-01-29T00:26:26;100737.31;;;-1.86;67.85
16664;BME280;8445;51.270;9.434;2023-01-29T00:28:52;100747.69;;;-1.83;67.70
16664;BME280;8445;51.270;9.434;2023-01-29T00:31:22;100738.97;;;-1.76;67.60
16664;BME280;8445;51.270;9.434;2023-01-29T00:33:49;100738.97;;;-1.70;68.01
16664;BME280;8445;51.270;9.434;2023-01-29T00:36:17;100726.88;;;-1.66;67.88
16664;BME280;8445;51.270;9.434;2023-01-29T00:38:44;100726.84;;;-1.65;67.38
16664;BME280;8445;51.270;9.434;2023-01-29T00:41:20;100719.03;;;-1.61;67.50
16664;BME280;8445;51.270;9.434;2023-01-29T00:44:05;100717.31;;;-1.59;67.56
16664;BME280;8445;51.270;9.434;2023-01-29T00:46:50;100710.38;;;-1.56;67.42
16664;BME280;8445;51.270;9.434;2023-01-29T00:49:17;100719.03;;;-1.51;67.80
16664;BME280;8445;51.270;9.434;2023-01-29T00:51:43;100718.09;;;-1.42;67.70
16664;BME280;8445;51.270;9.434;2023-01-29T00:54:29;100721.50;;;-1.30;67.67
16664;BME280;8445;51.270;9.434;2023-01-29T00:56:56;100719.72;;;-1.24;67.34
16664;BME280;8445;51.270;9.434;2023-01-29T00:59:22;100710.16;;;-1.17;67.30
16664;BME280;8445;51.270;9.434;2023-01-29T01:01:48;100703.22;;;-1.10;67.40
16664;BME280;8445;51.270;9.434;2023-01-29T01:04:34;100706.63;;;-1.07;67.43
16664;BME280;8445;51.270;9.434;2023-01-29T01:07:00;100701.41;;;-1.03;67.51
16664;BME280;8445;51.270;9.434;2023-01-29T01:09:26;100698.81;;;-0.99;67.43
16664;BME280;8445;51.270;9.434;2023-01-29T01:12:10;100699.63;;;-0.95;67.06
16664;BME280;8445;51.270;9.434;2023-01-29T01:14:36;100699.66;;;-0.94;66.99
16664;BME280;8445;51.270;9.434;2023-01-29T01:17:03;100703.09;;;-0.96;67.29
16664;BME280;8445;51.270;9.434;2023-01-29T01:19:30;100709.19;;;-0.97;66.90
16664;BME280;8445;51.270;9.434;2023-01-29T01:21:56;100710.91;;;-0.99;67.16
16664;BME280;8445;51.270;9.434;2023-01-29T01:24:22;100717.81;;;-0.95;67.33
16664;BME280;8445;51.270;9.434;2023-01-29T01:26:50;100716.94;;;-0.94;67.12
16664;BME280;8445;51.270;9.434;2023-01-29T01:29:19;100709.19;;;-0.97;67.28
16664;BME280;8445;51.270;9.434;2023-01-29T01:31:54;100716.06;;;-0.90;67.59
16664;BME280;8445;51.270;9.434;2023-01-29T01:34:22;100722.97;;;-0.86;67.32
16664;BME280;8445;51.270;9.434;2023-01-29T01:36:48;100716.88;;;-0.83;67.24
16664;BME280;8445;51.270;9.434;2023-01-29T01:39:13;100712.53;;;-0.80;67.10
16664;BME280;8445;51.270;9.434;2023-01-29T01:41:39;100715.09;;;-0.77;67.22
16664;BME280;8445;51.270;9.434;2023-01-29T01:44:05;100721.16;;;-0.78;67.19
16664;BME280;8445;51.270;9.434;2023-01-29T01:46:35;100721.16;;;-0.78;67.15
16664;BME280;8445;51.270;9.434;2023-01-29T01:49:08;100726.34;;;-0.75;67.74
16664;BME280;8445;51.270;9.434;2023-01-29T01:51:39;100726.31;;;-0.71;67.28
16664;BME280;8445;51.270;9.434;2023-01-29T01:54:10;100719.38;;;-0.69;67.50
16664;BME280;8445;51.270;9.434;2023-01-29T01:56:42;100719.34;;;-0.66;67.46
16664;BME280;8445;51.270;9.434;2023-01-29T01:59:11;100721.94;;;-0.65;67.07
16664;BME280;8445;51.270;9.434;2023-01-29T02:01:41;100721.06;;;-0.67;67.14
16664;BME280;8445;51.270;9.434;2023-01-29T02:04:21;100724.56;;;-0.66;67.46
16664;BME280;8445;51.270;9.434;2023-01-29T02:07:09;100728.00;;;-0.66;66.92
16664;BME280;8445;51.270;9.434;2023-01-29T02:10:14;100724.56;;;-0.66;67.75
16664;BME280;8445;51.270;9.434;2023-01-29T02:12:41;100710.72;;;-0.68;67.08
16664;BME280;8445;51.270;9.434;2023-01-29T02:15:08;100695.13;;;-0.68;67.11
16664;BME280;8445;51.270;9.434;2023-01-29T02:17:34;100685.59;;;-0.71;67.17
16664;BME280;8445;51.270;9.434;2023-01-29T02:28:25;100676.94;;;-0.68;67.61
16664;BME280;8445;51.270;9.434;2023-01-29T02:33:38;100685.59;;;-0.69;67.31
16664;BME280;8445;51.270;9.434;2023-01-29T02:36:36;100684.72;;;-0.68;67.42
16664;BME280;8445;51.270;9.434;2023-01-29T02:39:02;100678.69;;;-0.70;67.42
16664;BME280;8445;51.270;9.434;2023-01-29T02:44:22;100689.06;;;-0.72;67.39
16664;BME280;8445;51.270;9.434;2023-01-29T02:47:28;100684.75;;;-0.73;68.02
16664;BME280;8445;51.270;9.434;2023-01-29T02:52:31;100673.59;;;-0.86;67.10
16664;BME280;8445;51.270;9.434;2023-01-29T02:55:36;100679.69;;;-0.90;67.63
16664;BME280;8445;51.270;9.434;2023-01-29T02:58:28;100677.19;;;-1.01;67.71
16664;BME280;8445;51.270;9.434;2023-01-29T03:01:02;100679.84;;;-1.13;67.24
16664;BME280;8445;51.270;9.434;2023-01-29T03:03:37;100686.84;;;-1.25;66.98
16664;BME280;8445;51.270;9.434;2023-01-29T03:06:12;100694.69;;;-1.37;67.06
16664;BME280;8445;51.270;9.434;2023-01-29T03:08:54;100702.56;;;-1.48;67.58
16664;BME280;8445;51.270;9.434;2023-01-29T03:11:22;100701.75;;;-1.62;67.49
16664;BME280;8445;51.270;9.434;2023-01-29T03:13:58;100697.47;;;-1.73;67.54
16664;BME280;8445;51.270;9.434;2023-01-29T03:16:33;100699.28;;;-1.90;67.36
16664;BME280;8445;51.270;9.434;2023-01-29T03:19:13;100712.31;;;-2.07;66.90
16664;BME280;8445;51.270;9.434;2023-01-29T03:21:45;100719.25;;;-2.22;66.67
16664;BME280;8445;51.270;9.434;2023-01-29T03:24:56;100709.75;;;-2.35;66.62
16664;BME280;8445;51.270;9.434;2023-01-29T03:27:52;100707.19;;;-2.49;66.85
16664;BME280;8445;51.270;9.434;2023-01-29T03:30:46;100683.84;;;-2.57;67.11
16664;BME280;8445;51.270;9.434;2023-01-29T03:33:58;100697.69;;;-2.69;67.26
16664;BME280;8445;51.270;9.434;2023-01-29T03:36:28;100696.81;;;-2.80;66.91
16664;BME280;8445;51.270;9.434;2023-01-29T03:39:07;100704.56;;;-2.90;67.39
16664;BME280;8445;51.270;9.434;2023-01-29T03:41:53;100708.03;;;-3.03;67.06
16664;BME280;8445;51.270;9.434;2023-01-29T03:44:45;100712.31;;;-3.13;67.54
16664;BME280;8445;51.270;9.434;2023-01-29T03:47:53;100711.44;;;-3.20;67.74
16664;BME280;8445;51.270;9.434;2023-01-29T03:50:37;100715.75;;;-3.22;67.25
16664;BME280;8445;51.270;9.434;2023-01-29T03:53:18;100711.41;;;-3.21;67.95
16664;BME280;8445;51.270;9.434;2023-01-29T03:55:58;100706.25;;;-3.26;67.46
16664;BME280;8445;51.270;9.434;2023-01-29T03:58:39;100712.31;;;-3.25;67.36
16664;BME280;8445;51.270;9.434;2023-01-29T04:01:17;100702.78;;;-3.28;67.81
16664;BME280;8445;51.270;9.434;2023-01-29T04:03:52;100702.78;;;-3.31;67.50
16664;BME280;8445;51.270;9.434;2023-01-29T04:06:24;100701.03;;;-3.35;67.80
16664;BME280;8445;51.270;9.434;2023-01-29T04:09:09;100710.53;;;-3.37;67.58
16664;BME280;8445;51.270;9.434;2023-01-29T04:11:44;100695.88;;;-3.43;67.15
16664;BME280;8445;51.270;9.434;2023-01-29T04:14:11;100708.78;;;-3.46;67.17
16664;BME280;8445;51.270;9.434;2023-01-29T04:16:40;100695.00;;;-3.45;67.33
16664;BME280;8445;51.270;9.434;2023-01-29T04:19:22;100681.19;;;-3.46;67.04
16664;BME280;8445;51.270;9.434;2023-01-29T04:21:49;100691.53;;;-3.53;67.04
16664;BME280;8445;51.270;9.434;2023-01-29T04:24:20;100685.47;;;-3.60;67.43
16664;BME280;8445;51.270;9.434;2023-01-29T04:27:22;100688.94;;;-3.58;67.68
16664;BME280;8445;51.270;9.434;2023-01-29T04:38:55;100665.63;;;-3.60;67.76
16664;BME280;8445;51.270;9.434;2023-01-29T04:41:02;100663.06;;;-3.55;68.18
16664;BME280;8445;51.270;9.434;2023-01-29T04:43:40;100660.47;;;-3.53;68.33
16664;BME280;8445;51.270;9.434;2023-01-29T04:46:24;100660.47;;;-3.57;68.08
16664;BME280;8445;51.270;9.434;2023-01-29T04:49:18;100663.06;;;-3.53;68.39
16664;BME280;8445;51.270;9.434;2023-01-29T04:54:29;100660.50;;;-3.55;67.79
16664;BME280;8445;51.270;9.434;2023-01-29T04:57:23;100654.44;;;-3.55;68.82
16664;BME280;8445;51.270;9.434;2023-01-29T05:00:12;100651.88;;;-3.54;68.18
16664;BME280;8445;51.270;9.434;2023-01-29T05:02:40;100654.47;;;-3.54;67.96
16664;BME280;8445;51.270;9.434;2023-01-29T05:05:07;100647.56;;;-3.50;68.19
16664;BME280;8445;51.270;9.434;2023-01-29T05:07:36;100644.09;;;-3.51;67.33
16664;BME280;8445;51.270;9.434;2023-01-29T05:10:13;100644.09;;;-3.42;68.34
16664;BME280;8445;51.270;9.434;2023-01-29T05:12:42;100635.50;;;-3.31;68.11
16664;BME280;8445;51.270;9.434;2023-01-29T05:15:21;100631.22;;;-3.24;67.62
16664;BME280;8445;51.270;9.434;2023-01-29T05:17:47;100634.66;;;-3.16;68.19
16664;BME280;8445;51.270;9.434;2023-01-29T05:20:13;100644.16;;;-3.06;68.48
16664;BME280;8445;51.270;9.434;2023-01-29T05:22:40;100630.38;;;-3.00;67.99
16664;BME280;8445;51.270;9.434;2023-01-29T05:25:32;100632.94;;;-2.88;68.90
16664;BME280;8445;51.270;9.434;2023-01-29T05:27:58;100622.56;;;-2.81;68.38
16664;BME280;8445;51.270;9.434;2023-01-29T05:30:31;100616.53;;;-2.71;68.45
16664;BME280;8445;51.270;9.434;2023-01-29T05:32:57;100609.59;;;-2.63;68.11
16664;BME280;8445;51.270;9.434;2023-01-29T05:35:22;100603.53;;;-2.53;68.61
16664;BME280;8445;51.270;9.434;2023-01-29T05:37:48;100597.47;;;-2.42;68.29
16664;BME280;8445;51.270;9.434;2023-01-29T05:40:13;100606.94;;;-2.40;67.72
16664;BME280;8445;51.270;9.434;2023-01-29T05:42:39;100599.16;;;-2.36;67.99
16664;BME280;8445;51.270;9.434;2023-01-29T05:45:04;100598.28;;;-2.32;68.40
16664;BME280;8445;51.270;9.434;2023-01-29T05:47:30;100597.41;;;-2.28;68.12
16664;BME280;8445;51.270;9.434;2023-01-29T05:49:55;100585.31;;;-2.25;67.96
16664;BME280;8445;51.270;9.434;2023-01-29T05:52:21;100593.94;;;-2.22;68.33
16664;BME280;8445;51.270;9.434;2023-01-29T05:54:46;100593.94;;;-2.22;67.77
16664;BME280;8445;51.270;9.434;2023-01-29T05:57:13;100606.03;;;-2.21;68.22
16664;BME280;8445;51.270;9.434;2023-01-29T05:59:38;100614.69;;;-2.21;68.06
16664;BME280;8445;51.270;9.434;2023-01-29T06:02:04;100626.78;;;-2.20;68.27
16664;BME280;8445;51.270;9.434;2023-01-29T06:04:29;100634.53;;;-2.17;68.06
16664;BME280;8445;51.270;9.434;2023-01-29T06:06:55;100643.16;;;-2.13;67.98
16664;BME280;8445;51.270;9.434;2023-01-29T06:09:20;100654.38;;;-2.06;68.14
16664;BME280;8445;51.270;9.434;2023-01-29T06:11:45;100649.16;;;-1.97;68.59
16664;BME280;8445;51.270;9.434;2023-01-29T06:14:11;100643.06;;;-1.90;68.31
16664;BME280;8445;51.270;9.434;2023-01-29T06:16:36;100644.78;;;-1.83;68.45
16664;BME280;8445;51.270;9.434;2023-01-29T06:19:04;100653.38;;;-1.76;68.02
16664;BME280;8445;51.270;9.434;2023-01-29T06:21:30;100654.25;;;-1.75;68.19
16664;BME280;8445;51.270;9.434;2023-01-29T06:23:55;100654.22;;;-1.71;68.48
16664;BME280;8445;51.270;9.434;2023-01-29T06:26:20;100657.66;;;-1.66;68.42
16664;BME280;8445;51.270;9.434;2023-01-29T06:28:49;100666.28;;;-1.60;68.54
16664;BME280;8445;51.270;9.434;2023-01-29T06:31:14;100663.66;;;-1.57;68.40
16664;BME280;8445;51.270;9.434;2023-01-29T06:33:40;100669.69;;;-1.52;68.83
16664;BME280;8445;51.270;9.434;2023-01-29T06:36:06;100658.47;;;-1.50;68.63
16664;BME280;8445;51.270;9.434;2023-01-29T06:38:31;100656.72;;;-1.52;69.14
16664;BME280;8445;51.270;9.434;2023-01-29T06:40:57;100649.81;;;-1.53;69.05
16664;BME280;8445;51.270;9.434;2023-01-29T06:43:23;100659.34;;;-1.55;68.58
16664;BME280;8445;51.270;9.434;2023-01-29T06:45:54;100659.38;;;-1.60;68.19
16664;BME280;8445;51.270;9.434;2023-01-29T06:48:20;100676.66;;;-1.64;68.22
16664;BME280;8445;51.270;9.434;2023-01-29T06:50:46;100669.78;;;-1.68;68.57
16664;BME280;8445;51.270;9.434;2023-01-29T06:53:16;100673.22;;;-1.66;68.77
16664;BME280;8445;51.270;9.434;2023-01-29T06:55:45;100680.13;;;-1.61;68.36
16664;BME280;8445;51.270;9.434;2023-01-29T06:58:15;100679.25;;;-1.57;68.38
16664;BME280;8445;51.270;9.434;2023-01-29T07:00:42;100687.00;;;-1.54;68.88
16664;BME280;8445;51.270;9.434;2023-01-29T07:03:08;100691.31;;;-1.50;68.22
16664;BME280;8445;51.270;9.434;2023-01-29T07:05:35;100690.44;;;-1.46;68.68
16664;BME280;8445;51.270;9.434;2023-01-29T07:08:00;100686.06;;;-1.42;68.55
16664;BME280;8445;51.270;9.434;2023-01-29T07:10:25;100694.72;;;-1.39;68.80
16664;BME280;8445;51.270;9.434;2023-01-29T07:12:51;100705.97;;;-1.37;68.86
16664;BME280;8445;51.270;9.434;2023-01-29T07:15:17;100719.81;;;-1.35;68.71
16664;BME280;8445;51.270;9.434;2023-01-29T07:18:01;100715.44;;;-1.29;68.58
16664;BME280;8445;51.270;9.434;2023-01-29T07:20:30;100688.56;;;-1.24;68.81
16664;BME280;8445;51.270;9.434;2023-01-29T07:22:58;100659.16;;;-1.21;68.92
16664;BME280;8445;51.270;9.434;2023-01-29T07:25:24;100657.34;;;-1.16;68.90
16664;BME280;8445;51.270;9.434;2023-01-29T07:27:50;100654.75;;;-1.13;68.86
16664;BME280;8445;51.270;9.434;2023-01-29T07:30:16;100656.44;;;-1.07;69.02
16664;BME280;8445;51.270;9.434;2023-01-29T07:32:41;100656.41;;;-1.02;68.86
16664;BME280;8445;51.270;9.434;2023-01-29T07:35:07;100669.34;;;-0.95;68.77
16664;BME280;8445;51.270;9.434;2023-01-29T07:37:33;100674.47;;;-0.87;68.59
16664;BME280;8445;51.270;9.434;2023-01-29T07:39:58;100662.28;;;-0.79;68.73
16664;BME280;8445;51.270;9.434;2023-01-29T07:42:24;100676.09;;;-0.73;68.64
16664;BME280;8445;51.270;9.434;2023-01-29T07:44:49;100666.53;;;-0.68;68.52
16664;BME280;8445;51.270;9.434;2023-01-29T07:47:15;100669.97;;;-0.66;68.70
16664;BME280;8445;51.270;9.434;2023-01-29T07:49:40;100676.06;;;-0.67;68.67
16664;BME280;8445;51.270;9.434;2023-01-29T07:52:06;100678.63;;;-0.64;68.78
16664;BME280;8445;51.270;9.434;2023-01-29T07:54:31;100662.13;;;-0.60;68.76
16664;BME280;8445;51.270;9.434;2023-01-29T07:56:57;100648.16;;;-0.50;68.96
16664;BME280;8445;51.270;9.434;2023-01-29T07:59:22;100649.81;;;-0.42;68.79
16664;BME280;8445;51.270;9.434;2023-01-29T08:01:47;100661.88;;;-0.35;68.94
16664;BME280;8445;51.270;9.434;2023-01-29T08:04:13;100673.06;;;-0.27;69.08
16664;BME280;8445;51.270;9.434;2023-01-29T08:06:39;100678.19;;;-0.21;68.68
16664;BME280;8445;51.270;9.434;2023-01-29T08:09:04;100679.88;;;-0.15;68.30
16664;BME280;8445;51.270;9.434;2023-01-29T08:11:30;100684.22;;;-0.16;68.87
16664;BME280;8445;51.270;9.434;2023-01-29T08:13:55;100671.19;;;-0.12;68.59
16664;BME280;8445;51.270;9.434;2023-01-29T08:16:22;100684.16;;;-0.09;68.67
16664;BME280;8445;51.270;9.434;2023-01-29T08:18:47;100680.75;;;-0.16;68.41
16664;BME280;8445;51.270;9.434;2023-01-29T08:21:13;100677.38;;;-0.26;68.19
16664;BME280;8445;51.270;9.434;2023-01-29T08:23:41;100668.78;;;-0.34;68.21
16664;BME280;8445;51.270;9.434;2023-01-29T08:26:07;100674.91;;;-0.38;68.55
16664;BME280;8445;51.270;9.434;2023-01-29T08:28:33;100664.53;;;-0.41;68.95
16664;BME280;8445;51.270;9.434;2023-01-29T08:30:59;100672.34;;;-0.41;68.83
16664;BME280;8445;51.270;9.434;2023-01-29T08:33:24;100667.94;;;-0.36;68.73
16664;BME280;8445;51.270;9.434;2023-01-29T08:35:53;100664.38;;;-0.27;68.81
16664;BME280;8445;51.270;9.434;2023-01-29T08:38:18;100672.16;;;-0.23;68.74
16664;BME280;8445;51.270;9.434;2023-01-29T08:40:44;100672.97;;;-0.19;68.86
16664;BME280;8445;51.270;9.434;2023-01-29T08:43:11;100667.78;;;-0.18;68.69
16664;BME280;8445;51.270;9.434;2023-01-29T08:45:39;100654.72;;;-0.14;68.59
16664;BME280;8445;51.270;9.434;2023-01-29T08:48:05;100647.72;;;-0.06;69.18
16664;BME280;8445;51.270;9.434;2023-01-29T08:50:34;100645.88;;;0.01;69.24
16664;BME280;8445;51.270;9.434;2023-01-29T08:53:03;100640.56;;;0.08;68.94
16664;BME280;8445;51.270;9.434;2023-01-29T08:55:29;100643.91;;;0.20;69.33
16664;BME280;8445;51.270;9.434;2023-01-29T08:57:57;100654.97;;;0.37;69.41
16664;BME280;8445;51.270;9.434;2023-01-29T09:00:22;100653.88;;;0.54;69.34
16664;BME280;8445;51.270;9.434;2023-01-29T09:02:48;100638.94;;;0.65;68.98
16664;BME280;8445;51.270;9.434;2023-01-29T09:05:14;100643.13;;;0.77;69.14
16664;BME280;8445;51.270;9.434;2023-01-29T09:07:41;100627.38;;;0.85;69.16
16664;BME280;8445;51.270;9.434;2023-01-29T09:10:10;100622.13;;;0.88;68.86
16664;BME280;8445;51.270;9.434;2023-01-29T09:12:36;100617.56;;;1.01;69.33
16664;BME280;8445;51.270;9.434;2023-01-29T09:15:02;100618.38;;;1.05;69.35
16664;BME280;8445;51.270;9.434;2023-01-29T09:17:28;100616.56;;;1.10;69.89
16664;BME280;8445;51.270;9.434;2023-01-29T09:19:53;100613.63;;;1.28;69.86
16664;BME280;8445;51.270;9.434;2023-01-29T09:22:19;100608.81;;;1.55;70.26
16664;BME280;8445;51.270;9.434;2023-01-29T09:24:45;100609.25;;;1.77;69.85
16664;BME280;8445;51.270;9.434;2023-01-29T09:27:10;100610.63;;;1.96;70.19
16664;BME280;8445;51.270;9.434;2023-01-29T09:29:41;100623.28;;;2.14;69.93
16664;BME280;8445;51.270;9.434;2023-01-29T09:32:07;100624.06;;;2.18;70.09
16664;BME280;8445;51.270;9.434;2023-01-29T09:34:33;100632.78;;;2.18;69.34
16664;BME280;8445;51.270;9.434;2023-01-29T09:36:59;100624.75;;;2.28;70.11
16664;BME280;8445;51.270;9.434;2023-01-29T09:39:24;100635.84;;;2.37;70.09
16664;BME280;8445;51.270;9.434;2023-01-29T09:42:08;100636.56;;;2.44;69.14
16664;BME280;8445;51.270;9.434;2023-01-29T09:47:16;100619.41;;;2.34;69.44
16664;BME280;8445;51.270;9.434;2023-01-29T09:49:49;100617.75;;;2.30;69.29
16664;BME280;8445;51.270;9.434;2023-01-29T09:52:20;100615.91;;;2.35;69.65
16664;BME280;8445;51.270;9.434;2023-01-29T09:57:19;100612.66;;;2.24;69.21
16664;BME280;8445;51.270;9.434;2023-01-29T09:59:49;100617.06;;;2.21;69.12
16664;BME280;8445;51.270;9.434;2023-01-29T10:02:40;100620.56;;;2.19;68.91
16664;BME280;8445;51.270;9.434;2023-01-29T10:05:33;100626.66;;;2.19;69.15
16664;BME280;8445;51.270;9.434;2023-01-29T10:13:46;100626.59;;;2.22;68.51
16664;BME280;8445;51.270;9.434;2023-01-29T10:16:24;100620.50;;;2.22;68.89
16664;BME280;8445;51.270;9.434;2023-01-29T10:21:43;100602.75;;;2.38;68.10
16664;BME280;8445;51.270;9.434;2023-01-29T10:24:30;100604.31;;;2.47;69.87
16664;BME280;8445;51.270;9.434;2023-01-29T10:26:58;100609.47;;;2.48;69.02
16664;BME280;8445;51.270;9.434;2023-01-29T10:29:28;100600.75;;;2.49;68.90
16664;BME280;8445;51.270;9.434;2023-01-29T10:31:57;100590.31;;;2.49;68.98
16664;BME280;8445;51.270;9.434;2023-01-29T10:34:56;100578.69;;;2.63;69.41
16664;BME280;8445;51.270;9.434;2023-01-29T10:37:44;100579.38;;;2.71;67.86
16664;BME280;8445;51.270;9.434;2023-01-29T10:40:21;100581.56;;;2.88;69.70
16664;BME280;8445;51.270;9.434;2023-01-29T10:43:05;100572.94;;;2.85;68.89
16664;BME280;8445;51.270;9.434;2023-01-29T10:45:41;100561.59;;;2.86;67.72
16664;BME280;8445;51.270;9.434;2023-01-29T10:56:39;100532.78;;;2.89;69.55
16664;BME280;8445;51.270;9.434;2023-01-29T11:01:56;100525.69;;;2.94;69.38
16664;BME280;8445;51.270;9.434;2023-01-29T11:04:30;100531.47;;;3.05;69.60
16664;BME280;8445;51.270;9.434;2023-01-29T11:06:56;100526.28;;;3.04;69.38
16664;BME280;8445;51.270;9.434;2023-01-29T11:09:38;100515.81;;;3.04;68.10
16664;BME280;8445;51.270;9.434;2023-01-29T11:12:14;100507.03;;;3.06;68.92
16664;BME280;8445;51.270;9.434;2023-01-29T11:14:48;100514.88;;;3.06;68.34
16664;BME280;8445;51.270;9.434;2023-01-29T11:17:23;100509.81;;;3.00;68.52
16664;BME280;8445;51.270;9.434;2023-01-29T11:19:50;100507.28;;;2.97;68.51
16664;BME280;8445;51.270;9.434;2023-01-29T11:22:19;100502.94;;;2.96;68.64
16664;BME280;8445;51.270;9.434;2023-01-29T11:24:46;100512.56;;;2.95;68.95
16664;BME280;8445;51.270;9.434;2023-01-29T11:27:32;100498.75;;;2.90;68.38
16664;BME280;8445;51.270;9.434;2023-01-29T11:29:59;100485.66;;;2.92;68.75
16664;BME280;8445;51.270;9.434;2023-01-29T11:32:29;100490.78;;;2.95;67.85
16664;BME280;8445;51.270;9.434;2023-01-29T11:35:02;100483.75;;;2.97;67.99
16664;BME280;8445;51.270;9.434;2023-01-29T11:37:33;100483.75;;;2.97;67.74
16664;BME280;8445;51.270;9.434;2023-01-29T11:40:31;100467.06;;;3.03;67.58
16664;BME280;8445;51.270;9.434;2023-01-29T11:43:11;100473.63;;;3.18;66.83
16664;BME280;8445;51.270;9.434;2023-01-29T11:45:38;100462.75;;;3.32;68.00
16664;BME280;8445;51.270;9.434;2023-01-29T11:48:17;100468.47;;;3.46;68.17
16664;BME280;8445;51.270;9.434;2023-01-29T11:50:50;100468.22;;;3.54;67.76
16664;BME280;8445;51.270;9.434;2023-01-29T11:53:36;100461.41;;;3.50;67.18
16664;BME280;8445;51.270;9.434;2023-01-29T11:56:16;100466.25;;;3.62;67.75
16664;BME280;8445;51.270;9.434;2023-01-29T11:58:43;100462.44;;;3.73;68.02
16664;BME280;8445;51.270;9.434;2023-01-29T12:01:10;100455.50;;;3.71;67.91
16664;BME280;8445;51.270;9.434;2023-01-29T12:03:43;100451.06;;;3.75;67.41
16664;BME280;8445;51.270;9.434;2023-01-29T12:06:20;100448.66;;;3.67;66.94
16664;BME280;8445;51.270;9.434;2023-01-29T12:08:57;100442.50;;;3.68;67.52
16664;BME280;8445;51.270;9.434;2023-01-29T12:11:33;100433.56;;;3.76;67.98
16664;BME280;8445;51.270;9.434;2023-01-29T12:14:02;100436.81;;;3.84;68.02
16664;BME280;8445;51.270;9.434;2023-01-29T12:16:32;100437.63;;;3.86;68.46
16664;BME280;8445;51.270;9.434;2023-01-29T12:19:24;100437.34;;;3.95;67.58
16664;BME280;8445;51.270;9.434;2023-01-29T12:22:10;100430.91;;;4.06;67.50
16664;BME280;8445;51.270;9.434;2023-01-29T12:27:20;100405.09;;;4.20;67.36
16664;BME280;8445;51.270;9.434;2023-01-29T12:36:10;100387.97;;;4.37;67.79
16664;BME280;8445;51.270;9.434;2023-01-29T12:38:38;100382.63;;;4.40;68.15
16664;BME280;8445;51.270;9.434;2023-01-29T12:41:27;100390.47;;;4.41;67.60
16664;BME280;8445;51.270;9.434;2023-01-29T12:44:00;100387.84;;;4.41;67.51
16664;BME280;8445;51.270;9.434;2023-01-29T12:46:30;100379.19;;;4.39;67.94
16664;BME280;8445;51.270;9.434;2023-01-29T12:49:02;100369.44;;;4.43;67.95
16664;BME280;8445;51.270;9.434;2023-01-29T12:51:38;100362.47;;;4.42;67.23
16664;BME280;8445;51.270;9.434;2023-01-29T12:54:19;100361.16;;;4.30;67.62
16664;BME280;8445;51.270;9.434;2023-01-29T12:56:50;100361.28;;;4.25;67.61
16664;BME280;8445;51.270;9.434;2023-01-29T12:59:30;100356.81;;;4.29;67.38
16664;BME280;8445;51.270;9.434;2023-01-29T13:02:10;100340.22;;;4.28;66.95
16664;BME280;8445;51.270;9.434;2023-01-29T13:04:58;100346.38;;;4.27;67.01
16664;BME280;8445;51.270;9.434;2023-01-29T13:07:32;100343.50;;;4.35;67.41
16664;BME280;8445;51.270;9.434;2023-01-29T13:10:06;100346.75;;;4.42;67.48
16664;BME280;8445;51.270;9.434;2023-01-29T13:12:34;100343.88;;;4.50;67.37
16664;BME280;8445;51.270;9.434;2023-01-29T13:15:02;100330.63;;;4.54;67.93
16664;BME280;8445;51.270;9.434;2023-01-29T13:17:41;100327.09;;;4.55;67.41
16664;BME280;8445;51.270;9.434;2023-01-29T13:20:23;100324.28;;;4.60;67.33
16664;BME280;8445;51.270;9.434;2023-01-29T13:22:52;100311.03;;;4.65;67.14
16664;BME280;8445;51.270;9.434;2023-01-29T13:25:20;100305.44;;;4.74;67.74
16664;BME280;8445;51.270;9.434;2023-01-29T13:27:46;100301.34;;;4.90;67.64
16664;BME280;8445;51.270;9.434;2023-01-29T13:30:28;100303.03;;;4.92;66.16
16664;BME280;8445;51.270;9.434;2023-01-29T13:32:55;100300.66;;;4.85;67.11
16664;BME280;8445;51.270;9.434;2023-01-29T13:35:38;100294.09;;;4.73;67.03
16664;BME280;8445;51.270;9.434;2023-01-29T13:38:05;100288.25;;;4.67;66.90
16664;BME280;8445;51.270;9.434;2023-01-29T13:40:31;100281.84;;;4.74;67.33
16664;BME280;8445;51.270;9.434;2023-01-29T13:43:00;100288.75;;;4.77;66.96
16664;BME280;8445;51.270;9.434;2023-01-29T13:45:40;100289.44;;;4.82;67.35
16664;BME280;8445;51.270;9.434;2023-01-29T13:48:27;100294.72;;;4.80;65.88
16664;BME280;8445;51.270;9.434;2023-01-29T13:50:55;100296.44;;;4.81;66.98
16664;BME280;8445;51.270;9.434;2023-01-29T13:53:28;100299.75;;;4.86;66.79
16664;BME280;8445;51.270;9.434;2023-01-29T13:59:01;100298.38;;;4.76;65.97
16664;BME280;8445;51.270;9.434;2023-01-29T14:06:46;100297.47;;;4.28;66.40
16664;BME280;8445;51.270;9.434;2023-01-29T14:09:31;100299.09;;;4.07;65.34
16664;BME280;8445;51.270;9.434;2023-01-29T14:12:00;100283.78;;;3.94;66.29
16664;BME280;8445;51.270;9.434;2023-01-29T14:17:17;100296.13;;;3.64;66.59
16664;BME280;8445;51.270;9.434;2023-01-29T14:20:19;100298.78;;;3.62;66.53
16664;BME280;8445;51.270;9.434;2023-01-29T14:22:53;100294.63;;;3.56;66.33
16664;BME280;8445;51.270;9.434;2023-01-29T14:25:25;100288.75;;;3.50;66.44
16664;BME280;8445;51.270;9.434;2023-01-29T14:27:53;100282.00;;;3.43;65.90
16664;BME280;8445;51.270;9.434;2023-01-29T14:30:18;100284.81;;;3.35;66.42
16664;BME280;8445;51.270;9.434;2023-01-29T14:32:48;100270.38;;;3.23;66.03
16664;BME280;8445;51.270;9.434;2023-01-29T14:35:26;100274.16;;;3.14;66.08
16664;BME280;8445;51.270;9.434;2023-01-29T14:37:58;100282.13;;;3.09;65.89
16664;BME280;8445;51.270;9.434;2023-01-29T14:40:26;100282.38;;;3.02;65.95
16664;BME280;8445;51.270;9.434;2023-01-29T14:43:02;100272.09;;;2.95;65.79
16664;BME280;8445;51.270;9.434;2023-01-29T14:48:02;100284.59;;;2.86;65.47